createdAt,value
2017-12-03T00:00:01.798Z,29.37
2017-12-03T00:02:29.452Z,27.30
2017-12-03T00:04:57.143Z,25.30
2017-12-03T00:07:25.572Z,28.87
2017-12-03T00:09:53.277Z,29.37
2017-12-03T00:12:20.943Z,23.97
2017-12-03T00:14:49.457Z,27.97
2017-12-03T00:17:17.106Z,29.73
2017-12-03T00:19:44.830Z,28.17
2017-12-03T00:22:12.486Z,25.07
2017-12-03T00:24:40.202Z,30.50
2017-12-03T00:27:07.859Z,31.73
2017-12-03T00:29:35.584Z,26.00
2017-12-03T00:32:04.023Z,28.70
2017-12-03T00:34:31.733Z,32.27
2017-12-03T00:37:00.164Z,29.30
2017-12-03T00:39:27.868Z,34.00
2017-12-03T00:41:56.298Z,30.87
2017-12-03T00:44:23.958Z,32.23
2017-12-03T00:46:51.663Z,33.80
2017-12-03T00:49:20.088Z,35.50
2017-12-03T00:51:47.795Z,33.77
2017-12-03T00:54:16.218Z,32.20
2017-12-03T00:56:43.921Z,35.10
2017-12-03T00:59:11.578Z,29.93
2017-12-03T01:01:39.290Z,33.13
2017-12-03T01:04:06.957Z,36.70
2017-12-03T01:06:34.654Z,31.13
2017-12-03T01:09:02.366Z,29.47
2017-12-03T01:11:30.067Z,31.60
2017-12-03T01:13:57.723Z,29.40
2017-12-03T01:16:25.427Z,34.20
2017-12-03T01:18:53.082Z,31.10
2017-12-03T01:21:20.798Z,33.20
2017-12-03T01:23:48.459Z,26.67
2017-12-03T01:26:16.199Z,29.40
2017-12-03T01:28:43.919Z,27.13
2017-12-03T01:31:12.351Z,27.67
2017-12-03T01:33:40.059Z,27.67
2017-12-03T01:36:08.476Z,29.93
2017-12-03T01:38:36.934Z,30.90
2017-12-03T01:41:04.610Z,31.33
2017-12-03T01:43:32.318Z,34.27
2017-12-03T01:46:00.757Z,33.70
2017-12-03T01:48:29.325Z,31.00
2017-12-03T01:50:57.014Z,32.10
2017-12-03T01:53:24.748Z,31.10
2017-12-03T01:55:52.425Z,37.43
2017-12-03T01:58:20.141Z,33.70
2017-12-03T02:00:47.872Z,31.83
2017-12-03T02:03:15.606Z,34.40
2017-12-03T02:05:43.339Z,29.90
2017-12-03T02:08:11.129Z,33.57
2017-12-03T02:10:39.579Z,36.50
2017-12-03T02:13:07.306Z,32.10
2017-12-03T02:15:35.780Z,29.63
2017-12-03T02:18:04.253Z,36.60
2017-12-03T02:20:32.791Z,26.87
2017-12-03T02:23:00.505Z,34.77
2017-12-03T02:25:28.983Z,33.20
2017-12-03T02:27:57.422Z,33.83
2017-12-03T02:30:25.913Z,36.30
2017-12-03T02:32:53.718Z,37.17
2017-12-03T02:35:21.581Z,33.93
2017-12-03T02:37:50.623Z,32.53
2017-12-03T02:40:18.469Z,36.90
2017-12-03T02:42:46.227Z,33.20
2017-12-03T02:45:14.054Z,34.90
2017-12-03T02:47:42.078Z,33.20
2017-12-03T02:50:10.727Z,30.73
2017-12-03T02:52:38.698Z,38.30
2017-12-03T02:55:06.455Z,31.37
2017-12-03T02:57:34.277Z,37.90
2017-12-03T03:00:02.028Z,29.20
2017-12-03T03:02:29.908Z,33.37
2017-12-03T03:05:02.146Z,37.30
2017-12-03T03:07:34.072Z,33.97
2017-12-03T03:10:04.008Z,32.10
2017-12-03T03:12:31.734Z,37.83
2017-12-03T03:14:59.414Z,32.10
2017-12-03T03:17:27.129Z,35.73
2017-12-03T03:19:55.602Z,33.73
2017-12-03T03:22:24.118Z,38.67
2017-12-03T03:24:51.786Z,36.17
2017-12-03T03:27:19.535Z,33.03
2017-12-03T03:29:47.208Z,31.93
2017-12-03T03:32:14.940Z,34.87
2017-12-03T03:34:43.385Z,36.37
2017-12-03T03:37:11.162Z,37.77
2017-12-03T03:39:39.651Z,32.97
2017-12-03T03:42:11.624Z,33.50
2017-12-03T03:44:40.169Z,33.27
2017-12-03T03:47:07.914Z,38.43
2017-12-03T03:49:35.631Z,29.87
2017-12-03T03:52:03.306Z,33.30
2017-12-03T03:54:31.022Z,29.70
2017-12-03T03:56:58.731Z,34.43
2017-12-03T03:59:26.443Z,33.27
2017-12-03T04:01:54.930Z,33.87
2017-12-03T04:04:23.467Z,27.23
2017-12-03T04:06:51.155Z,28.93
2017-12-03T04:09:18.875Z,27.57
2017-12-03T04:11:46.582Z,30.10
2017-12-03T04:14:15.083Z,28.93
2017-12-03T04:16:42.812Z,35.63
2017-12-03T04:19:10.540Z,28.40
2017-12-03T04:21:38.233Z,26.43
2017-12-03T04:24:06.004Z,27.27
2017-12-03T04:26:34.452Z,28.83
2017-12-03T04:29:02.175Z,31.97
2017-12-03T04:31:29.854Z,27.13
2017-12-03T04:33:57.571Z,25.63
2017-12-03T04:36:26.131Z,25.80
2017-12-03T04:38:53.859Z,29.27
2017-12-03T04:41:21.629Z,30.47
2017-12-03T04:43:49.343Z,26.00
2017-12-03T04:46:17.900Z,28.53
2017-12-03T04:48:45.630Z,30.63
2017-12-03T04:51:13.435Z,24.40
2017-12-03T04:53:41.939Z,27.83
2017-12-03T04:56:09.707Z,27.33
2017-12-03T04:58:37.431Z,26.43
2017-12-03T05:01:05.208Z,26.70
2017-12-03T05:03:33.671Z,21.97
2017-12-03T05:06:02.182Z,22.83
2017-12-03T05:08:29.930Z,27.50
2017-12-03T05:10:57.740Z,23.13
2017-12-03T05:13:25.463Z,21.67
2017-12-03T05:15:53.222Z,21.43
2017-12-03T05:18:20.933Z,25.33
2017-12-03T05:20:48.638Z,25.57
2017-12-03T05:23:16.399Z,21.10
2017-12-03T05:25:44.110Z,20.67
2017-12-03T05:28:11.870Z,21.77
2017-12-03T05:30:39.603Z,24.67
2017-12-03T05:33:07.362Z,24.03
2017-12-03T05:35:35.087Z,19.87
2017-12-03T05:38:03.614Z,17.73
2017-12-03T05:40:31.344Z,25.00
2017-12-03T05:42:59.862Z,21.37
2017-12-03T05:45:27.563Z,18.47
2017-12-03T05:47:56.105Z,19.97
2017-12-03T05:50:24.819Z,23.17
2017-12-03T05:52:52.548Z,19.30
2017-12-03T05:55:20.316Z,22.63
2017-12-03T05:57:48.036Z,22.23
2017-12-03T06:00:16.593Z,20.43
2017-12-03T06:02:45.075Z,22.23
2017-12-03T06:05:13.631Z,20.50
2017-12-03T06:07:41.332Z,21.53
2017-12-03T06:10:09.107Z,20.33
2017-12-03T06:12:37.082Z,19.67
2017-12-03T06:15:04.975Z,25.60
2017-12-03T06:17:32.743Z,21.83
2017-12-03T06:20:01.541Z,20.13
2017-12-03T06:22:29.431Z,21.07
2017-12-03T06:24:57.948Z,21.73
2017-12-03T06:27:25.723Z,26.00
2017-12-03T06:29:53.454Z,25.23
2017-12-03T06:32:21.235Z,22.90
2017-12-03T06:34:48.974Z,23.87
2017-12-03T06:37:16.722Z,23.13
2017-12-03T06:39:45.200Z,24.40
2017-12-03T06:42:12.946Z,23.40
2017-12-03T06:44:41.440Z,21.90
2017-12-03T06:47:09.226Z,23.40
2017-12-03T06:49:36.951Z,23.53
2017-12-03T06:52:05.458Z,25.27
2017-12-03T06:54:33.239Z,23.90
2017-12-03T06:57:00.971Z,26.43
2017-12-03T06:59:28.752Z,26.87
2017-12-03T07:01:56.480Z,24.30
2017-12-03T07:04:24.293Z,26.87
2017-12-03T07:06:51.999Z,24.23
2017-12-03T07:09:20.523Z,29.20
2017-12-03T07:11:48.261Z,27.20
2017-12-03T07:14:16.035Z,27.37
2017-12-03T07:16:43.769Z,26.50
2017-12-03T07:19:12.310Z,27.60
2017-12-03T07:21:40.102Z,26.90
2017-12-03T07:24:08.602Z,26.40
2017-12-03T07:26:36.375Z,28.47
2017-12-03T07:29:04.107Z,28.97
2017-12-03T07:31:32.664Z,23.97
2017-12-03T07:34:00.390Z,25.40
2017-12-03T07:36:28.162Z,28.20
2017-12-03T07:38:55.932Z,25.30
2017-12-03T07:41:23.750Z,23.37
2017-12-03T07:43:51.554Z,23.60
2017-12-03T07:46:19.367Z,28.43
2017-12-03T07:48:47.862Z,22.50
2017-12-03T07:51:15.667Z,24.17
2017-12-03T07:53:43.408Z,20.13
2017-12-03T07:56:11.159Z,23.87
2017-12-03T07:58:38.863Z,23.67
2017-12-03T08:01:06.650Z,27.27
2017-12-03T08:03:35.158Z,22.80
2017-12-03T08:06:02.934Z,23.90
2017-12-03T08:08:30.695Z,22.27
2017-12-03T08:10:58.443Z,23.13
2017-12-03T08:13:26.170Z,22.37
2017-12-03T08:15:54.746Z,23.27
2017-12-03T08:18:23.246Z,27.90
2017-12-03T08:20:52.913Z,24.50
2017-12-03T08:23:23.094Z,22.03
2017-12-03T08:25:52.097Z,21.77
2017-12-03T08:28:21.175Z,31.70
2017-12-03T08:30:52.280Z,26.23
2017-12-03T08:33:22.261Z,23.30
2017-12-03T08:35:50.952Z,26.70
2017-12-03T08:38:20.489Z,26.50
2017-12-03T08:40:49.648Z,21.27
2017-12-03T08:43:19.868Z,27.10
2017-12-03T08:45:49.768Z,21.37
2017-12-03T08:48:18.351Z,26.53
2017-12-03T08:50:47.482Z,24.00
2017-12-03T08:53:16.723Z,24.20
2017-12-03T08:55:46.976Z,24.20
2017-12-03T08:58:17.279Z,22.90
2017-12-03T09:00:45.229Z,21.33
2017-12-03T09:03:12.967Z,28.80
2017-12-03T09:05:40.734Z,27.07
2017-12-03T09:08:08.427Z,28.80
2017-12-03T09:10:36.219Z,36.70
2017-12-03T09:13:04.719Z,23.07
2017-12-03T09:15:32.482Z,27.37
2017-12-03T09:18:00.318Z,28.30
2017-12-03T09:20:28.087Z,47.57
2017-12-03T09:22:56.586Z,30.63
2017-12-03T09:25:24.413Z,30.13
2017-12-03T09:27:52.139Z,29.83
2017-12-03T09:30:19.875Z,30.83
2017-12-03T09:32:47.649Z,31.90
2017-12-03T09:35:15.538Z,26.70
2017-12-03T09:37:43.356Z,31.17
2017-12-03T09:40:11.095Z,26.90
2017-12-03T09:42:39.626Z,30.03
2017-12-03T09:45:07.355Z,27.10
2017-12-03T09:47:35.122Z,29.83
2017-12-03T09:50:02.911Z,34.17
2017-12-03T09:52:31.066Z,27.53
2017-12-03T09:54:58.798Z,27.00
2017-12-03T09:57:27.886Z,28.53
2017-12-03T09:59:55.675Z,46.50
2017-12-03T10:02:23.462Z,42.53
2017-12-03T10:04:51.191Z,45.13
2017-12-03T10:07:18.967Z,48.67
2017-12-03T10:09:46.716Z,40.10
2017-12-03T10:12:14.507Z,29.77
2017-12-03T10:14:42.266Z,27.70
2017-12-03T10:17:10.042Z,45.20
2017-12-03T10:19:37.778Z,42.40
2017-12-03T10:22:05.551Z,48.90
2017-12-03T10:24:33.308Z,31.17
2017-12-03T10:27:01.058Z,28.57
2017-12-03T10:29:28.878Z,22.00
2017-12-03T10:31:56.615Z,25.97
2017-12-03T10:34:24.390Z,28.47
2017-12-03T10:36:52.123Z,30.23
2017-12-03T10:39:19.993Z,34.53
2017-12-03T10:41:47.684Z,31.10
2017-12-03T10:44:15.437Z,32.40
2017-12-03T10:46:43.111Z,36.40
2017-12-03T10:49:11.595Z,28.83
2017-12-03T10:51:40.107Z,28.20
2017-12-03T10:54:07.837Z,30.23
2017-12-03T10:56:36.347Z,29.53
2017-12-03T10:59:04.132Z,41.17
2017-12-03T11:01:31.814Z,44.40
2017-12-03T11:04:12.860Z,39.03
2017-12-03T11:06:41.514Z,39.17
2017-12-03T11:09:09.512Z,33.57
2017-12-03T11:11:37.214Z,33.70
2017-12-03T11:14:05.718Z,27.87
2017-12-03T11:16:33.383Z,29.57
2017-12-03T11:19:01.061Z,27.23
2017-12-03T11:21:28.827Z,63.13
2017-12-03T11:23:56.531Z,31.30
2017-12-03T11:26:25.023Z,33.20
2017-12-03T11:28:53.479Z,34.17
2017-12-03T11:31:21.191Z,28.70
2017-12-03T11:33:48.876Z,25.17
2017-12-03T11:36:16.604Z,24.03
2017-12-03T11:38:44.298Z,26.67
2017-12-03T11:41:12.010Z,39.60
2017-12-03T11:43:39.712Z,60.00
2017-12-03T11:46:07.482Z,29.43
2017-12-03T11:48:35.163Z,32.10
2017-12-03T11:51:02.879Z,25.90
2017-12-03T11:53:30.544Z,24.97
2017-12-03T11:55:58.246Z,22.20
2017-12-03T11:58:25.902Z,27.63
2017-12-03T12:00:53.611Z,24.33
2017-12-03T12:03:21.270Z,26.97
2017-12-03T12:05:48.971Z,25.17
2017-12-03T12:08:16.632Z,23.23
2017-12-03T12:10:44.340Z,24.20
2017-12-03T12:13:12.006Z,25.50
2017-12-03T12:15:39.711Z,28.60
2017-12-03T12:18:07.366Z,24.80
2017-12-03T12:20:35.123Z,23.60
2017-12-03T12:23:02.806Z,22.60
2017-12-03T12:25:30.503Z,21.10
2017-12-03T12:27:58.202Z,25.87
2017-12-03T12:30:25.866Z,27.53
2017-12-03T12:32:54.067Z,26.40
2017-12-03T12:35:22.536Z,23.47
2017-12-03T12:37:51.015Z,20.37
2017-12-03T12:40:19.447Z,23.20
2017-12-03T12:42:47.183Z,21.20
2017-12-03T12:45:14.896Z,24.93
2017-12-03T12:47:42.648Z,21.13
2017-12-03T12:50:10.376Z,21.53
2017-12-03T12:52:38.183Z,25.50
2017-12-03T12:55:05.927Z,24.17
2017-12-03T12:57:33.720Z,24.03
2017-12-03T13:00:02.206Z,23.30
2017-12-03T13:02:30.698Z,22.80
2017-12-03T13:04:58.369Z,25.37
2017-12-03T13:07:26.100Z,26.23
2017-12-03T13:09:54.519Z,21.50
2017-12-03T13:12:23.072Z,22.77
2017-12-03T13:14:51.063Z,20.70
2017-12-03T13:17:20.405Z,21.60
2017-12-03T13:19:48.605Z,20.77
2017-12-03T13:22:16.281Z,20.80
2017-12-03T13:24:43.979Z,19.70
2017-12-03T13:27:11.849Z,21.50
2017-12-03T13:29:39.570Z,18.83
2017-12-03T13:32:07.247Z,22.67
2017-12-03T13:34:34.979Z,49.63
2017-12-03T13:37:02.813Z,20.03
2017-12-03T13:39:30.665Z,25.43
2017-12-03T13:41:59.245Z,21.67
2017-12-03T13:44:26.953Z,17.73
2017-12-03T13:46:54.870Z,19.07
2017-12-03T13:49:22.649Z,17.57
2017-12-03T13:51:51.096Z,21.40
2017-12-03T13:54:18.787Z,20.63
2017-12-03T13:56:47.263Z,22.93
2017-12-03T13:59:15.214Z,20.00
2017-12-03T14:01:42.919Z,23.37
2017-12-03T14:04:11.203Z,24.40
2017-12-03T14:06:38.966Z,23.07
2017-12-03T14:09:06.963Z,23.80
2017-12-03T14:11:36.511Z,26.77
2017-12-03T14:14:04.280Z,27.20
2017-12-03T14:16:32.076Z,28.10
2017-12-03T14:18:59.960Z,26.10
2017-12-03T14:21:28.967Z,24.60
2017-12-03T14:23:58.166Z,34.53
2017-12-03T14:26:28.746Z,30.27
2017-12-03T14:28:59.151Z,25.63
2017-12-03T14:31:27.627Z,25.47
2017-12-03T14:33:55.294Z,22.97
2017-12-03T14:36:22.984Z,23.80
2017-12-03T14:38:50.678Z,23.30
2017-12-03T14:41:19.103Z,25.00
2017-12-03T14:43:46.800Z,24.73
2017-12-03T14:46:14.554Z,23.40
2017-12-03T14:48:42.298Z,23.70
2017-12-03T14:51:09.951Z,20.67
2017-12-03T14:53:37.648Z,29.73
2017-12-03T14:56:05.315Z,27.00
2017-12-03T14:58:33.802Z,21.63
2017-12-03T15:01:02.229Z,18.87
2017-12-03T15:03:30.007Z,26.80
2017-12-03T15:05:57.732Z,25.40
2017-12-03T15:08:25.442Z,26.43
2017-12-03T15:10:53.106Z,25.53
2017-12-03T15:13:20.875Z,27.47
2017-12-03T15:15:49.340Z,28.53
2017-12-03T15:18:17.110Z,24.57
2017-12-03T15:20:44.832Z,24.90
2017-12-03T15:23:12.551Z,27.07
2017-12-03T15:25:41.083Z,24.97
2017-12-03T15:28:08.807Z,24.27
2017-12-03T15:30:36.571Z,28.03
2017-12-03T15:33:04.292Z,25.97
2017-12-03T15:35:32.047Z,26.13
2017-12-03T15:37:59.767Z,36.80
2017-12-03T15:40:27.532Z,30.57
2017-12-03T15:42:55.289Z,33.97
2017-12-03T15:45:23.070Z,32.13
2017-12-03T15:47:50.790Z,26.80
2017-12-03T15:50:18.506Z,31.23
2017-12-03T15:52:46.262Z,32.93
2017-12-03T15:55:14.015Z,30.60
2017-12-03T15:57:42.675Z,31.67
2017-12-03T16:00:10.399Z,34.83
2017-12-03T16:02:39.058Z,44.10
2017-12-03T16:05:06.808Z,32.57
2017-12-03T16:07:34.570Z,41.77
2017-12-03T16:10:02.259Z,36.57
2017-12-03T16:12:30.771Z,34.87
2017-12-03T16:14:58.489Z,37.37
2017-12-03T16:17:26.989Z,30.23
2017-12-03T16:19:55.461Z,28.13
2017-12-03T16:22:24.016Z,28.40
2017-12-03T16:24:51.730Z,30.47
2017-12-03T16:27:19.603Z,33.47
2017-12-03T16:29:47.305Z,30.47
2017-12-03T16:32:15.024Z,30.23
2017-12-03T16:34:42.775Z,34.40
2017-12-03T16:37:10.505Z,31.00
2017-12-03T16:39:38.999Z,35.00
2017-12-03T16:42:06.688Z,36.93
2017-12-03T16:44:34.439Z,30.77
2017-12-03T16:47:02.102Z,37.63
2017-12-03T16:49:29.834Z,36.00
2017-12-03T16:51:57.506Z,33.73
2017-12-03T16:54:25.222Z,34.10
2017-12-03T16:56:52.899Z,32.87
2017-12-03T16:59:21.437Z,31.20
2017-12-03T17:01:49.136Z,36.23
2017-12-03T17:04:17.647Z,30.47
2017-12-03T17:06:45.315Z,28.27
2017-12-03T17:09:13.047Z,30.20
2017-12-03T17:11:41.494Z,28.70
2017-12-03T17:14:09.170Z,33.00
2017-12-03T17:16:37.702Z,30.47
2017-12-03T17:19:05.579Z,29.77
2017-12-03T17:21:33.383Z,30.97
2017-12-03T17:24:01.858Z,23.10
2017-12-03T17:26:30.798Z,29.37
2017-12-03T17:28:58.740Z,35.87
2017-12-03T17:31:26.658Z,33.50
2017-12-03T17:33:54.408Z,34.70
2017-12-03T17:38:56.014Z,33.67
2017-12-03T17:41:24.574Z,34.23
2017-12-03T17:43:52.457Z,34.83
2017-12-03T17:46:21.600Z,35.83
2017-12-03T17:48:49.347Z,32.07
2017-12-03T17:51:17.063Z,28.80
2017-12-03T17:53:45.712Z,36.00
2017-12-03T17:56:13.515Z,34.00
2017-12-03T17:58:42.135Z,32.43
2017-12-03T18:01:09.890Z,32.87
2017-12-03T18:03:37.612Z,31.33
2017-12-03T18:06:06.043Z,34.73
2017-12-03T18:08:33.755Z,32.37
2017-12-03T18:11:02.215Z,27.13
2017-12-03T18:13:30.178Z,34.83
2017-12-03T18:15:57.856Z,32.37
2017-12-03T18:18:26.318Z,33.17
2017-12-03T18:20:53.976Z,36.30
2017-12-03T18:23:21.730Z,36.47
2017-12-03T18:25:49.427Z,32.23
2017-12-03T18:28:17.162Z,35.17
2017-12-03T18:30:44.895Z,31.17
2017-12-03T18:33:12.604Z,32.67
2017-12-03T18:35:41.091Z,32.00
2017-12-03T18:38:08.918Z,27.17
2017-12-03T18:40:37.470Z,26.53
2017-12-03T18:43:05.567Z,35.53
2017-12-03T18:45:33.416Z,31.90
2017-12-03T18:48:01.244Z,27.30
2017-12-03T18:50:29.033Z,32.03
2017-12-03T18:52:56.791Z,33.33
2017-12-03T18:55:24.620Z,28.80
2017-12-03T18:57:52.420Z,28.87
2017-12-03T19:00:20.327Z,26.63
2017-12-03T19:02:48.951Z,30.97
2017-12-03T19:05:16.775Z,28.40
2017-12-03T19:07:46.832Z,28.13
2017-12-03T19:10:14.639Z,30.53
2017-12-03T19:12:42.624Z,34.60
2017-12-03T19:15:10.416Z,35.23
2017-12-03T19:17:38.144Z,31.20
2017-12-03T19:20:06.671Z,33.83
2017-12-03T19:22:34.390Z,34.07
2017-12-03T19:25:02.831Z,35.50
2017-12-03T19:27:30.590Z,33.93
2017-12-03T19:29:58.283Z,37.53
2017-12-03T19:32:27.129Z,31.73
2017-12-03T19:34:54.844Z,31.20
2017-12-03T19:37:22.579Z,32.83
2017-12-03T19:39:51.039Z,29.00
2017-12-03T19:42:18.772Z,35.40
2017-12-03T19:44:46.498Z,36.20
2017-12-03T19:47:14.219Z,32.70
2017-12-03T19:49:41.920Z,34.27
2017-12-03T19:52:09.797Z,27.87
2017-12-03T19:54:37.504Z,32.00
2017-12-03T19:57:05.279Z,30.73
2017-12-03T19:59:34.587Z,30.27
2017-12-03T20:02:04.211Z,37.83
2017-12-03T20:04:34.039Z,38.37
2017-12-03T20:07:03.523Z,29.13
2017-12-03T20:09:32.796Z,29.17
2017-12-03T20:12:03.266Z,27.77
2017-12-03T20:14:32.126Z,32.27
2017-12-03T20:16:59.914Z,31.53
2017-12-03T20:19:27.626Z,29.20
2017-12-03T20:21:58.078Z,35.07
2017-12-03T20:24:28.852Z,28.97
2017-12-03T20:26:56.737Z,32.83
2017-12-03T20:29:24.463Z,33.50
2017-12-03T20:31:52.435Z,36.57
2017-12-03T20:34:20.152Z,29.33
2017-12-03T20:36:48.667Z,30.87
2017-12-03T20:39:17.110Z,34.40
2017-12-03T20:41:44.915Z,31.97
2017-12-03T20:44:12.672Z,31.33
2017-12-03T20:46:40.399Z,34.90
2017-12-03T20:49:08.199Z,30.23
2017-12-03T20:51:35.868Z,28.83
2017-12-03T20:54:04.350Z,29.20
2017-12-03T20:56:32.024Z,32.07
2017-12-03T20:58:59.776Z,39.53
2017-12-03T21:01:27.451Z,36.93
2017-12-03T21:03:55.167Z,36.80
2017-12-03T21:06:22.847Z,35.20
2017-12-03T21:08:50.575Z,35.57
2017-12-03T21:11:18.286Z,38.13
2017-12-03T21:13:46.029Z,34.60
2017-12-03T21:16:14.532Z,37.37
2017-12-03T21:18:42.290Z,29.90
2017-12-03T21:21:10.055Z,34.93
2017-12-03T21:23:37.790Z,37.23
2017-12-03T21:26:05.530Z,34.97
2017-12-03T21:28:33.240Z,41.27
2017-12-03T21:31:00.978Z,30.57
2017-12-03T21:33:28.658Z,40.17
2017-12-03T21:35:56.393Z,35.27
2017-12-03T21:38:24.056Z,36.37
2017-12-03T21:40:51.813Z,32.83
2017-12-03T21:43:19.511Z,36.47
2017-12-03T21:45:47.995Z,37.00
2017-12-03T21:48:16.446Z,37.53
2017-12-03T21:50:44.152Z,40.50
2017-12-03T21:53:11.819Z,44.23
2017-12-03T21:55:39.527Z,44.47
2017-12-03T21:58:07.200Z,41.60
2017-12-03T22:00:35.676Z,50.87
2017-12-03T22:03:03.824Z,43.63
2017-12-03T22:05:31.535Z,39.27
2017-12-03T22:07:59.201Z,43.33
2017-12-03T22:10:26.903Z,36.17
2017-12-03T22:12:54.607Z,39.23
2017-12-03T22:15:23.043Z,38.73
2017-12-03T22:17:51.554Z,34.07
2017-12-03T22:20:19.992Z,36.20
2017-12-03T22:22:47.687Z,39.73
2017-12-03T22:25:16.117Z,37.50
2017-12-03T22:27:43.828Z,35.30
2017-12-03T22:30:12.267Z,38.47
2017-12-03T22:32:39.975Z,39.13
2017-12-03T22:35:08.409Z,38.07
2017-12-03T22:37:36.499Z,37.13
2017-12-03T22:42:38.243Z,33.43
2017-12-03T22:45:06.674Z,29.50
2017-12-03T22:47:34.391Z,31.93
2017-12-03T22:50:02.061Z,38.37
2017-12-03T22:52:29.790Z,35.10
2017-12-03T22:54:57.456Z,31.67
2017-12-03T22:57:25.115Z,32.20
2017-12-03T22:59:52.839Z,36.37
2017-12-03T23:02:20.515Z,29.63
2017-12-03T23:04:48.260Z,37.53
2017-12-03T23:07:16.191Z,33.93
2017-12-03T23:09:43.907Z,30.47
2017-12-03T23:12:11.574Z,38.97
2017-12-03T23:14:39.311Z,30.80
2017-12-03T23:17:07.002Z,33.43
2017-12-03T23:19:34.702Z,35.67
2017-12-03T23:22:03.170Z,30.90
2017-12-03T23:24:30.943Z,32.50
2017-12-03T23:26:59.769Z,31.57
2017-12-03T23:29:27.554Z,34.50
2017-12-03T23:31:55.263Z,31.97
2017-12-03T23:34:23.771Z,33.37
2017-12-03T23:36:51.432Z,32.97
2017-12-03T23:39:19.154Z,31.67
2017-12-03T23:41:47.647Z,33.43
2017-12-03T23:44:15.319Z,30.97
2017-12-03T23:46:43.065Z,29.63
2017-12-03T23:49:10.783Z,35.43
2017-12-03T23:51:38.542Z,33.23
2017-12-03T23:54:06.230Z,33.83
2017-12-03T23:56:34.765Z,33.07
2017-12-03T23:59:02.484Z,30.83
